createdAt,value
2023-02-27T05:39:55.523Z,3.95
2023-02-27T05:44:04.747Z,8.90
2023-02-27T05:48:13.575Z,3.92
2023-02-27T05:52:22.058Z,9.02
2023-02-27T05:56:28.532Z,7.03
2023-02-27T06:00:38.587Z,4.32
2023-02-27T06:04:43.424Z,7.07
2023-02-27T06:08:47.740Z,9.48
2023-02-27T06:12:54.535Z,10.27
2023-02-27T06:17:00.572Z,5.90
2023-02-27T06:21:08.078Z,6.45
2023-02-27T06:25:12.198Z,6.72
2023-02-27T06:29:16.797Z,5.38
2023-02-27T06:33:21.666Z,4.80
2023-02-27T06:37:24.818Z,4.55
2023-02-27T06:41:31.106Z,2.75
2023-02-27T06:45:35.689Z,2.67
2023-02-27T06:49:38.571Z,4.40
2023-02-27T06:53:40.856Z,3.22
2023-02-27T06:57:44.484Z,2.58
2023-02-27T07:01:49.335Z,2.53
2023-02-27T07:05:52.520Z,2.47
2023-02-27T07:09:57.469Z,3.33
2023-02-27T07:14:00.627Z,4.20
2023-02-27T07:18:09.304Z,3.13
2023-02-27T07:22:12.480Z,1.42
2023-02-27T07:26:15.704Z,2.22
2023-02-27T07:30:19.760Z,3.55
2023-02-27T07:34:26.695Z,3.08
2023-02-27T07:38:32.548Z,3.15
2023-02-27T07:42:38.564Z,2.58
2023-02-27T07:46:41.475Z,2.40
2023-02-27T07:50:46.051Z,3.00
2023-02-27T07:54:48.902Z,2.90
2023-02-27T07:58:53.934Z,3.03
2023-02-27T08:02:56.399Z,1.88
2023-02-27T08:07:08.411Z,2.13
2023-02-27T08:11:11.905Z,3.40
2023-02-27T08:15:15.563Z,3.45
2023-02-27T08:19:18.646Z,4.20
2023-02-27T08:27:26.137Z,1.60
2023-02-27T08:31:29.295Z,3.42
2023-02-27T08:35:36.442Z,6.78
2023-02-27T08:39:41.849Z,3.15
2023-02-27T08:43:44.862Z,2.15
2023-02-27T08:47:51.426Z,3.10
2023-02-27T08:51:55.086Z,1.75
2023-02-27T08:55:59.581Z,2.97
2023-02-27T09:00:02.887Z,1.95
2023-02-27T09:04:07.382Z,3.08
2023-02-27T09:08:10.631Z,3.05
2023-02-27T09:12:15.218Z,2.78
2023-02-27T09:16:18.142Z,3.53
2023-02-27T09:20:21.281Z,3.35
2023-02-27T09:24:24.436Z,2.42
2023-02-27T09:28:31.374Z,2.47
2023-02-27T09:32:34.346Z,6.95
2023-02-27T09:36:37.549Z,2.40
2023-02-27T09:40:46.766Z,1.85
2023-02-27T09:44:53.554Z,3.53
2023-02-27T09:49:00.353Z,2.92
2023-02-27T09:53:03.737Z,2.42
2023-02-27T09:57:12.540Z,2.53
2023-02-27T10:01:24.523Z,3.53
2023-02-27T10:05:35.849Z,2.22
2023-02-27T10:09:52.072Z,3.63
2023-02-27T10:14:03.651Z,2.83
2023-02-27T10:18:26.062Z,3.85
2023-02-27T10:22:34.927Z,2.45
2023-02-27T10:26:41.678Z,3.00
2023-02-27T10:30:48.583Z,5.05
2023-02-27T10:34:57.036Z,2.95
2023-02-27T10:39:02.851Z,3.05
2023-02-27T10:43:07.375Z,2.60
2023-02-27T10:47:15.015Z,2.88
2023-02-27T10:51:26.509Z,2.72
2023-02-27T10:55:32.253Z,3.50
2023-02-27T10:59:38.202Z,2.75
2023-02-27T11:03:44.334Z,1.80
2023-02-27T11:07:49.516Z,2.78
2023-02-27T11:11:53.471Z,2.83
2023-02-27T11:16:07.104Z,2.67
2023-02-27T11:20:37.438Z,3.83
2023-02-27T11:24:40.850Z,2.08
2023-02-27T11:32:50.133Z,3.08
2023-02-27T11:36:57.497Z,4.13
2023-02-27T11:41:03.505Z,5.63
2023-02-27T11:45:10.080Z,2.38
2023-02-27T11:49:34.377Z,2.97
2023-02-27T11:53:56.091Z,2.90
2023-02-27T11:58:03.972Z,2.60
2023-02-27T12:02:17.447Z,2.28
2023-02-27T12:06:30.345Z,3.47
2023-02-27T12:10:46.557Z,2.20
2023-02-27T12:14:58.958Z,2.22
2023-02-27T12:19:08.169Z,2.60
2023-02-27T12:23:20.358Z,4.30
2023-02-27T12:27:30.047Z,2.90
2023-02-27T12:35:58.905Z,3.33
2023-02-27T12:40:08.076Z,4.18
2023-02-27T12:44:45.025Z,4.53
2023-02-27T12:49:11.531Z,2.88
2023-02-27T12:53:32.007Z,2.60
2023-02-27T12:57:53.532Z,5.50
2023-02-27T13:02:11.125Z,2.92
2023-02-27T13:06:23.593Z,3.30
2023-02-27T13:10:33.064Z,3.67
2023-02-27T13:14:48.341Z,4.05
2023-02-27T13:18:58.185Z,4.50
2023-02-27T13:23:16.264Z,4.32
2023-02-27T13:27:25.241Z,3.28
2023-02-27T13:31:37.881Z,3.38
2023-02-27T13:35:51.074Z,3.15
2023-02-27T13:39:59.818Z,3.35
2023-02-27T13:44:50.368Z,3.83
2023-02-27T13:48:54.054Z,3.22
2023-02-27T13:52:58.986Z,3.13
2023-02-27T13:57:21.612Z,4.40
2023-02-27T14:01:30.015Z,3.40
2023-02-27T14:05:36.526Z,4.80
2023-02-27T14:09:43.289Z,4.45
2023-02-27T14:14:00.811Z,3.35
2023-02-27T14:18:15.967Z,4.75
2023-02-27T14:22:51.952Z,3.03
2023-02-27T14:26:57.332Z,4.05
2023-02-27T14:31:07.634Z,5.35
2023-02-27T14:35:17.000Z,5.10
2023-02-27T14:43:38.391Z,2.30
2023-02-27T14:47:42.340Z,3.47
2023-02-27T14:51:45.968Z,4.60
2023-02-27T15:00:00.190Z,2.60
2023-02-27T15:04:03.535Z,3.55
2023-02-27T15:08:06.554Z,4.65
2023-02-27T15:12:13.301Z,4.40
2023-02-27T15:16:42.623Z,4.70
2023-02-27T15:20:45.883Z,4.47
2023-02-27T15:24:50.678Z,3.97
2023-02-27T15:28:53.828Z,4.18
2023-02-27T15:32:59.162Z,5.38
2023-02-27T15:37:02.868Z,5.22
2023-02-27T15:41:06.621Z,4.15
2023-02-27T15:49:20.308Z,3.90
2023-02-27T15:53:25.102Z,4.70
2023-02-27T15:57:31.499Z,3.78
2023-02-27T16:01:36.134Z,4.65
2023-02-27T16:05:43.717Z,3.40
2023-02-27T16:09:52.183Z,4.82
2023-02-27T16:13:56.471Z,3.70
2023-02-27T16:18:07.014Z,5.20
2023-02-27T16:22:17.556Z,2.72
2023-02-27T16:26:29.555Z,2.67
2023-02-27T16:30:34.730Z,5.22
2023-02-27T16:34:47.290Z,5.25
2023-02-27T16:38:53.204Z,5.63
2023-02-27T16:42:58.270Z,4.10
2023-02-27T16:47:02.382Z,4.57
2023-02-27T16:51:06.271Z,5.03
2023-02-27T16:55:10.779Z,6.55
2023-02-27T16:59:28.762Z,4.88
2023-02-27T17:03:34.304Z,3.20
2023-02-27T17:11:43.087Z,4.78
2023-02-27T17:15:46.337Z,3.80
2023-02-27T17:19:49.897Z,3.25
2023-02-27T17:23:52.706Z,6.07
2023-02-27T17:27:57.470Z,6.05
2023-02-27T17:32:01.096Z,5.35
2023-02-27T17:36:04.366Z,5.68
2023-02-27T17:40:09.612Z,7.40
2023-02-27T17:44:14.923Z,5.45
2023-02-27T17:48:17.677Z,7.32
2023-02-27T17:52:20.700Z,6.88
2023-02-27T17:56:23.796Z,8.70
2023-02-27T18:00:31.194Z,6.68
2023-02-27T18:04:34.233Z,5.90
2023-02-27T18:08:37.974Z,9.68
2023-02-27T18:12:41.447Z,7.97
2023-02-27T18:16:47.685Z,9.00
2023-02-27T18:21:01.475Z,6.25
2023-02-27T18:25:05.647Z,8.80
2023-02-27T18:29:13.017Z,9.65
2023-02-27T18:33:20.904Z,13.38
2023-02-27T18:37:23.958Z,8.15
2023-02-27T18:41:27.115Z,9.90
2023-02-27T18:45:31.281Z,7.03
2023-02-27T18:49:35.852Z,8.15
2023-02-27T18:53:40.887Z,8.00
2023-02-27T18:57:46.529Z,8.40
2023-02-27T19:01:51.983Z,3.05
2023-02-27T19:05:56.561Z,7.25
2023-02-27T19:10:01.120Z,6.95
2023-02-27T19:14:05.360Z,6.50
2023-02-27T19:18:08.984Z,6.85
2023-02-27T19:22:13.848Z,7.95
2023-02-27T19:26:19.349Z,7.65
2023-02-27T19:30:22.573Z,8.43
2023-02-27T19:34:25.757Z,6.90
2023-02-27T19:38:33.446Z,7.53
2023-02-27T19:42:39.071Z,7.75
2023-02-27T19:46:43.688Z,7.63
2023-02-27T19:50:47.064Z,6.57
2023-02-27T19:54:52.325Z,6.00
2023-02-27T19:58:55.739Z,8.88
2023-02-27T20:02:58.880Z,7.05
2023-02-27T20:07:02.336Z,6.03
2023-02-27T20:11:09.536Z,9.95
2023-02-27T20:15:14.001Z,10.40
2023-02-27T20:19:19.854Z,9.35
2023-02-27T20:23:23.078Z,9.18
2023-02-27T20:27:28.016Z,9.52
2023-02-27T20:31:32.659Z,10.25
2023-02-27T20:35:38.776Z,11.10
2023-02-27T20:39:43.487Z,13.20
2023-02-27T20:43:48.161Z,12.82
2023-02-27T20:47:56.054Z,12.13
2023-02-27T20:52:00.933Z,12.27
2023-02-27T20:56:06.265Z,10.52
2023-02-27T21:00:15.919Z,11.43
2023-02-27T21:04:23.749Z,16.10
2023-02-27T21:08:29.018Z,12.00
2023-02-27T21:12:34.827Z,12.88
2023-02-27T21:16:40.032Z,9.88
2023-02-27T21:20:44.169Z,12.90
2023-02-27T21:24:49.006Z,12.88
2023-02-27T21:28:52.512Z,13.15
2023-02-27T21:32:56.451Z,12.07
2023-02-27T21:41:08.227Z,8.63
2023-02-27T21:45:14.566Z,7.85
2023-02-27T21:49:20.688Z,8.57
2023-02-27T21:53:24.337Z,8.80
2023-02-27T21:57:27.554Z,10.73
2023-02-27T22:01:31.655Z,8.70
2023-02-27T22:05:36.428Z,11.23
2023-02-27T22:09:39.605Z,8.35
2023-02-27T22:13:42.818Z,9.65
2023-02-27T22:17:46.129Z,12.00
2023-02-27T22:21:53.912Z,10.70
2023-02-27T22:26:03.593Z,12.45
2023-02-27T22:30:07.739Z,9.85
2023-02-27T22:34:18.211Z,8.93
2023-02-27T22:38:25.188Z,11.82
2023-02-27T22:42:28.706Z,10.30
2023-02-27T22:46:33.752Z,9.80
2023-02-27T22:50:36.663Z,11.82
2023-02-27T22:54:41.513Z,10.38
2023-02-27T22:58:48.037Z,11.60
2023-02-27T23:02:50.700Z,13.85
2023-02-27T23:06:56.248Z,10.68
2023-02-27T23:11:02.504Z,10.23
2023-02-27T23:15:07.860Z,10.80
2023-02-27T23:19:12.232Z,8.75
2023-02-27T23:23:17.639Z,10.40
2023-02-27T23:27:26.398Z,9.65
2023-02-27T23:31:31.683Z,9.23
2023-02-27T23:35:37.206Z,9.50
2023-02-27T23:39:41.564Z,14.40
2023-02-27T23:43:46.694Z,9.13
2023-02-27T23:47:52.228Z,8.40
2023-02-27T23:51:55.561Z,11.18
2023-02-27T23:55:58.854Z,11.57
